Time;durP1;ratioP1;P1;durP2;ratioP2;P2;SDS_P1;SDS_P2;PMS_P1;PMS_P2;Temp;Humidity;BMP_temperature;BMP_pressure;BME280_temperature;BME280_humidity;BME280_pressure;Samples;Min_cycle;Max_cycle;Signal;HPM_P1;HPM_P2
2022/12/15 00:39:02;;;;;;;4.50;4.10;;;2.00;99.90;;;;;;4962201;28;20336;-77
2022/12/15 00:41:28;;;;;;;5.27;3.73;;;2.10;99.90;;;;;;4963909;28;20429;-77
2022/12/15 00:43:54;;;;;;;3.67;3.37;;;2.10;99.90;;;;;;4964313;28;20031;-77
2022/12/15 00:50:50;;;;;;;4.10;3.70;;;2.20;99.90;;;;;;4963076;28;20118;-77
2022/12/15 01:21:56;;;;;;;5.07;3.90;;;1.80;99.90;;;;;;4961984;28;20104;-77
2022/12/15 01:24:21;;;;;;;4.37;3.97;;;1.90;99.90;;;;;;4971001;28;20047;-77
2022/12/15 01:26:47;;;;;;;5.43;4.40;;;1.90;99.90;;;;;;4961497;28;20113;-76
2022/12/15 01:29:13;;;;;;;4.83;4.13;;;1.90;99.90;;;;;;4964860;28;20034;-77
2022/12/15 01:31:39;;;;;;;4.77;3.60;;;2.00;99.90;;;;;;4960593;28;20035;-77
2022/12/15 01:34:04;;;;;;;4.47;3.87;;;2.00;99.90;;;;;;4963121;28;20042;-77
2022/12/15 01:36:30;;;;;;;3.20;2.90;;;2.10;99.90;;;;;;4961373;28;20544;-77
2022/12/15 01:38:56;;;;;;;3.90;3.53;;;2.20;99.90;;;;;;4964093;28;20081;-77
2022/12/15 01:41:21;;;;;;;4.00;3.63;;;2.30;99.90;;;;;;4960663;28;20086;-77
2022/12/15 01:43:47;;;;;;;4.03;3.63;;;2.20;99.90;;;;;;4963582;28;20023;-77
2022/12/15 01:46:16;;;;;;;5.07;3.30;;;2.20;99.90;;;;;;4964908;28;20483;-77
2022/12/15 01:48:59;;;;;;;4.43;3.30;;;2.20;99.90;;;;;;4962440;28;20527;-77
2022/12/15 01:51:33;;;;;;;3.53;3.23;;;2.20;99.90;;;;;;4970692;28;20030;-77
2022/12/15 01:54:11;;;;;;;3.90;3.50;;;2.00;99.90;;;;;;4959781;28;20524;-77
2022/12/15 01:56:44;;;;;;;4.67;3.70;;;2.00;99.90;;;;;;4959531;28;20047;-77
2022/12/15 01:59:14;;;;;;;5.37;3.50;;;2.00;99.90;;;;;;4963060;28;20035;-77
2022/12/15 02:01:40;;;;;;;4.33;4.00;;;2.00;99.90;;;;;;4960886;28;20023;-77
2022/12/15 02:04:06;;;;;;;3.80;3.50;;;2.10;99.90;;;;;;4963982;28;20027;-77
2022/12/15 02:06:32;;;;;;;3.93;3.60;;;2.00;99.90;;;;;;4964442;28;20063;-77
2022/12/15 02:08:59;;;;;;;4.63;3.87;;;2.00;99.90;;;;;;4959887;28;20314;-77
2022/12/15 02:11:48;;;;;;;4.83;4.00;;;2.00;99.90;;;;;;4964060;28;20481;-77
2022/12/15 02:14:31;;;;;;;3.87;3.57;;;2.00;99.90;;;;;;4929983;28;20124;-77
2022/12/15 02:17:23;;;;;;;4.83;4.40;;;1.90;99.90;;;;;;4960967;28;20520;-77
2022/12/15 02:20:08;;;;;;;;;;;1.80;99.90;;;;;;4964763;28;20113;-77
2022/12/15 02:23:02;;;;;;;6.03;5.10;;;1.80;99.90;;;;;;4977462;28;19921;-77
2022/12/15 02:26:06;;;;;;;5.20;4.70;;;1.70;99.90;;;;;;4957121;28;20401;-77
2022/12/15 02:29:02;;;;;;;4.80;4.40;;;1.60;99.90;;;;;;4963130;28;20157;-77
2022/12/15 02:31:48;;;;;;;6.67;4.77;;;1.50;99.90;;;;;;4962980;28;20287;-77
2022/12/15 02:34:38;;;;;;;8.57;5.67;;;1.40;99.90;;;;;;4961389;28;20034;-77
2022/12/15 02:37:25;;;;;;;12.87;6.47;;;1.40;99.90;;;;;;4960572;28;20038;-77
2022/12/15 02:39:50;;;;;;;5.97;5.13;;;1.40;99.90;;;;;;4966464;28;20058;-77
2022/12/15 02:42:16;;;;;;;3.83;3.53;;;1.50;99.90;;;;;;4962743;28;20058;-77
2022/12/15 02:44:53;;;;;;;4.00;3.70;;;1.50;99.90;;;;;;4968988;28;20027;-77
2022/12/15 02:47:56;;;;;;;3.40;3.10;;;1.60;99.90;;;;;;4962854;28;20031;-76
2022/12/15 02:50:44;;;;;;;3.20;2.90;;;1.60;99.90;;;;;;4963949;28;20059;-77
2022/12/15 02:53:27;;;;;;;3.80;3.50;;;1.60;99.90;;;;;;4964637;28;20027;-77
2022/12/15 02:55:56;;;;;;;3.60;3.30;;;1.60;99.90;;;;;;4969180;28;20485;-77
2022/12/15 02:58:30;;;;;;;3.40;2.93;;;1.60;99.90;;;;;;4963412;28;20046;-76
2022/12/15 03:01:01;;;;;;;3.70;3.20;;;1.70;99.90;;;;;;4965087;28;20015;-76
2022/12/15 03:03:29;;;;;;;3.47;3.17;;;1.80;99.90;;;;;;4964996;28;20023;-76
2022/12/15 03:05:56;;;;;;;3.33;3.03;;;1.80;99.90;;;;;;4963223;28;20035;-77
2022/12/15 03:08:23;;;;;;;3.13;2.83;;;1.90;99.90;;;;;;4964622;28;20485;-77
2022/12/15 03:10:53;;;;;;;3.23;2.90;;;2.00;99.90;;;;;;4964846;28;20054;-76
2022/12/15 03:13:19;;;;;;;4.43;2.87;;;2.10;99.90;;;;;;4965030;28;20026;-77
2022/12/15 03:15:45;;;;;;;3.87;2.80;;;2.20;99.90;;;;;;4966936;28;20030;-76
2022/12/15 03:18:11;;;;;;;2.73;2.53;;;2.30;99.90;;;;;;4964925;28;20054;-77
2022/12/15 03:20:36;;;;;;;2.37;2.27;;;2.40;99.90;;;;;;4964002;28;20019;-76
2022/12/15 03:23:02;;;;;;;2.40;2.20;;;2.50;99.90;;;;;;4964937;28;20023;-77
2022/12/15 03:25:29;;;;;;;2.90;2.47;;;2.50;99.90;;;;;;4963638;28;20032;-77
2022/12/15 03:27:54;;;;;;;3.37;2.80;;;2.60;99.90;;;;;;4967012;28;20059;-76
2022/12/15 03:30:20;;;;;;;2.63;2.43;;;2.70;99.90;;;;;;4965556;28;20062;-77
2022/12/15 03:32:46;;;;;;;2.47;2.27;;;2.70;99.90;;;;;;4962998;28;20086;-77
2022/12/15 03:35:12;;;;;;;2.10;2.00;;;2.70;99.90;;;;;;4964266;28;20122;-77
2022/12/15 03:37:39;;;;;;;5.07;2.30;;;2.80;99.90;;;;;;4962504;28;20054;-77
2022/12/15 03:40:05;;;;;;;2.17;2.07;;;2.90;99.90;;;;;;4961509;28;20027;-77
2022/12/15 03:42:49;;;;;;;2.50;2.30;;;3.00;99.90;;;;;;4964862;28;20023;-77
2022/12/15 03:45:21;;;;;;;2.53;2.33;;;3.20;99.90;;;;;;4965399;28;20034;-77
2022/12/15 03:47:47;;;;;;;3.88;3.53;;;3.30;99.90;;;;;;4970407;28;20035;-77
2022/12/15 03:50:15;;;;;;;4.80;4.30;;;3.20;99.90;;;;;;4966480;28;20026;-77
2022/12/15 03:52:41;;;;;;;4.97;4.47;;;3.10;99.90;;;;;;4963201;28;20561;-77
2022/12/15 03:55:08;;;;;;;4.80;4.23;;;3.00;99.90;;;;;;4965070;28;20492;-77
2022/12/15 03:57:34;;;;;;;10.43;5.57;;;3.00;99.90;;;;;;4963320;28;20047;-77
2022/12/15 04:00:00;;;;;;;8.43;6.87;;;3.00;99.90;;;;;;4964052;28;20135;-77
2022/12/15 04:02:26;;;;;;;8.67;7.23;;;3.00;99.90;;;;;;4962379;28;20039;-76
2022/12/15 04:04:51;;;;;;;8.87;6.80;;;2.90;99.90;;;;;;4968206;28;20030;-77
2022/12/15 04:07:17;;;;;;;8.17;6.33;;;2.80;99.90;;;;;;4966280;28;20027;-76
2022/12/15 04:09:43;;;;;;;8.93;6.33;;;2.90;99.90;;;;;;4963240;28;20034;-76
2022/12/15 04:12:11;;;;;;;8.10;6.50;;;2.90;99.90;;;;;;4962554;28;20027;-76
2022/12/15 04:14:41;;;;;;;7.80;6.90;;;2.90;99.90;;;;;;4964546;28;20528;-76
2022/12/15 04:17:11;;;;;;;6.93;6.07;;;2.90;99.90;;;;;;4966275;28;20026;-76
2022/12/15 04:22:22;;;;;;;11.83;8.20;;;2.90;99.90;;;;;;4963001;28;20070;-77
2022/12/15 05:33:18;;;;;;;16.23;10.43;;;3.30;99.90;;;;;;4963053;28;20425;-76
2022/12/15 05:35:44;;;;;;;15.43;10.77;;;3.30;99.90;;;;;;4959506;28;20027;-77
2022/12/15 05:38:09;;;;;;;13.63;10.03;;;3.30;99.90;;;;;;4956599;28;20024;-77
2022/12/15 05:40:35;;;;;;;10.80;9.53;;;3.30;99.90;;;;;;4973899;28;20031;-77
2022/12/15 05:43:01;;;;;;;16.03;9.90;;;3.30;99.90;;;;;;4973693;28;20053;-77
2022/12/15 05:45:27;;;;;;;15.83;9.33;;;3.40;99.90;;;;;;4973759;28;20113;-76
2022/12/15 05:47:56;;;;;;;12.50;9.60;;;3.40;99.90;;;;;;4973795;28;20058;-76
2022/12/15 05:50:22;;;;;;;11.10;8.40;;;3.50;99.90;;;;;;4953333;29;20554;-76
2022/12/15 05:52:51;;;;;;;12.23;8.52;;;3.50;99.90;;;;;;4969436;28;20031;-76
2022/12/15 05:55:17;;;;;;;11.10;8.27;;;3.50;99.90;;;;;;4970762;28;20056;-76
2022/12/15 05:57:49;;;;;;;10.82;8.05;;;3.60;99.90;;;;;;4972179;28;20051;-76
2022/12/15 06:00:15;;;;;;;9.98;8.02;;;3.60;99.90;;;;;;4972909;28;20035;-76
2022/12/15 06:02:41;;;;;;;10.23;6.93;;;3.60;99.90;;;;;;4959356;28;20023;-76
2022/12/15 06:05:07;;;;;;;10.90;7.47;;;3.70;99.90;;;;;;4963271;28;20066;-76
2022/12/15 06:07:33;;;;;;;10.02;8.18;;;3.70;99.90;;;;;;4959292;28;20027;-76
2022/12/15 06:09:59;;;;;;;9.80;7.68;;;3.80;99.90;;;;;;4966054;28;20027;-76
2022/12/15 06:12:24;;;;;;;13.80;9.10;;;3.80;99.90;;;;;;4960594;28;20038;-76
2022/12/15 06:14:50;;;;;;;14.55;8.95;;;3.80;99.90;;;;;;4964648;28;20031;-76
2022/12/15 06:17:16;;;;;;;12.97;9.13;;;3.80;99.90;;;;;;4968466;28;20054;-76
2022/12/15 06:19:41;;;;;;;11.13;8.93;;;3.80;99.90;;;;;;4967964;28;20031;-76
2022/12/15 06:22:07;;;;;;;11.60;9.30;;;3.80;99.90;;;;;;4963775;28;20518;-76
2022/12/15 06:24:33;;;;;;;12.87;9.77;;;3.80;99.90;;;;;;4967142;28;20049;-76
2022/12/15 06:26:58;;;;;;;13.82;9.13;;;3.80;99.90;;;;;;4968016;28;20038;-77
2022/12/15 06:29:24;;;;;;;12.33;9.90;;;3.80;99.90;;;;;;4973929;28;20023;-77
2022/12/15 06:31:50;;;;;;;12.35;8.75;;;3.80;99.90;;;;;;4957530;29;20030;-77
2022/12/15 06:34:16;;;;;;;12.75;9.13;;;3.80;99.90;;;;;;4967904;28;20039;-77
2022/12/15 06:36:43;;;;;;;11.73;9.07;;;3.80;99.90;;;;;;4966762;28;20034;-76
2022/12/15 06:39:11;;;;;;;11.20;8.52;;;3.80;99.90;;;;;;4975680;28;20018;-76
2022/12/15 06:41:37;;;;;;;15.57;9.53;;;3.80;99.90;;;;;;4975210;28;20030;-77
2022/12/15 06:44:04;;;;;;;12.77;10.45;;;3.80;99.90;;;;;;4976690;28;20023;-76
2022/12/15 06:46:31;;;;;;;20.60;13.80;;;3.80;99.90;;;;;;4976671;28;20063;-77
2022/12/15 06:48:57;;;;;;;26.87;16.67;;;3.80;99.90;;;;;;4958458;28;20393;-76
2022/12/15 06:51:24;;;;;;;18.37;13.13;;;3.80;99.90;;;;;;4957549;29;20035;-77
2022/12/15 06:53:54;;;;;;;20.13;12.93;;;3.80;99.90;;;;;;4956233;29;20023;-77
2022/12/15 06:56:23;;;;;;;16.47;12.07;;;3.80;99.90;;;;;;4957200;28;20027;-77
2022/12/15 06:58:50;;;;;;;21.38;13.25;;;3.80;99.90;;;;;;4958769;28;20109;-77
2022/12/15 07:01:17;;;;;;;19.30;12.70;;;3.80;99.90;;;;;;4968723;28;20027;-77
2022/12/15 07:03:43;;;;;;;16.43;11.47;;;3.80;99.90;;;;;;4970214;28;20109;-77
2022/12/15 07:06:13;;;;;;;16.50;12.33;;;3.80;99.90;;;;;;4955834;29;20058;-76
2022/12/15 07:08:39;;;;;;;19.90;13.90;;;3.80;99.90;;;;;;4956066;29;20034;-77
2022/12/15 07:11:06;;;;;;;18.52;12.85;;;3.70;99.90;;;;;;4967938;28;20030;-77
2022/12/15 07:13:32;;;;;;;14.90;11.65;;;3.70;99.90;;;;;;4976447;28;20082;-77
2022/12/15 07:15:59;;;;;;;13.77;10.93;;;3.70;99.90;;;;;;4974995;28;20035;-77
2022/12/15 07:18:25;;;;;;;18.77;11.35;;;3.80;99.90;;;;;;4963758;28;20035;-77
2022/12/15 07:20:51;;;;;;;16.60;10.73;;;3.80;99.90;;;;;;4971734;28;20500;-77
2022/12/15 07:23:16;;;;;;;19.17;11.35;;;3.80;99.90;;;;;;4971714;28;20028;-77
2022/12/15 07:25:42;;;;;;;21.10;10.68;;;3.90;99.90;;;;;;4965436;28;20089;-77
2022/12/15 07:28:08;;;;;;;19.98;11.63;;;3.90;99.90;;;;;;4974216;28;20118;-77
2022/12/15 07:30:34;;;;;;;20.02;13.23;;;3.90;99.90;;;;;;4975317;28;20041;-77
2022/12/15 07:33:00;;;;;;;25.10;13.37;;;4.00;99.90;;;;;;4975965;28;20037;-77
2022/12/15 07:35:26;;;;;;;18.20;12.20;;;4.00;99.90;;;;;;4974394;28;20030;-77
2022/12/15 07:37:52;;;;;;;18.85;11.65;;;4.00;99.90;;;;;;4975922;28;20061;-77
2022/12/15 07:40:17;;;;;;;16.58;10.20;;;4.00;99.90;;;;;;4975808;28;20031;-77
2022/12/15 07:42:43;;;;;;;13.88;10.07;;;4.00;99.90;;;;;;4973217;28;20030;-77
2022/12/15 07:45:13;;;;;;;12.10;8.23;;;4.10;99.90;;;;;;4971591;28;20030;-77
2022/12/15 07:47:39;;;;;;;9.82;7.18;;;4.10;99.90;;;;;;4967984;28;20133;-77
2022/12/15 07:50:05;;;;;;;12.97;7.60;;;4.10;99.90;;;;;;4971256;28;20031;-77
2022/12/15 07:52:31;;;;;;;11.07;7.90;;;4.20;99.90;;;;;;4971116;28;20058;-77
2022/12/15 07:54:56;;;;;;;9.43;7.55;;;4.20;99.90;;;;;;4972762;28;20026;-77
2022/12/15 07:57:22;;;;;;;8.50;6.80;;;4.20;99.90;;;;;;4971331;28;20440;-77
2022/12/15 07:59:49;;;;;;;8.02;6.65;;;4.30;99.90;;;;;;4972689;28;20030;-77
2022/12/15 08:02:15;;;;;;;9.13;7.18;;;4.30;99.90;;;;;;4971243;28;20042;-77
2022/12/15 08:04:40;;;;;;;13.45;10.32;;;4.40;99.90;;;;;;4972552;28;20469;-77
2022/12/15 08:07:07;;;;;;;16.40;11.00;;;4.30;99.90;;;;;;4971338;28;20116;-77
2022/12/15 08:09:34;;;;;;;18.52;12.68;;;4.30;99.90;;;;;;4971314;28;20025;-77
2022/12/15 08:12:02;;;;;;;18.10;12.77;;;4.30;99.90;;;;;;4969986;28;20023;-77
2022/12/15 08:14:28;;;;;;;21.70;13.70;;;4.30;99.90;;;;;;4972512;28;20488;-76
2022/12/15 08:16:54;;;;;;;25.90;15.45;;;4.30;99.90;;;;;;4967536;28;20035;-77
2022/12/15 08:19:20;;;;;;;26.33;16.65;;;4.30;99.90;;;;;;4966567;28;20109;-76
2022/12/15 08:21:46;;;;;;;46.28;23.13;;;4.30;99.90;;;;;;4967840;28;20489;-76
2022/12/15 08:24:13;;;;;;;27.70;17.08;;;4.30;99.90;;;;;;4966597;28;20484;-77
2022/12/15 08:26:39;;;;;;;25.45;16.25;;;4.30;99.90;;;;;;4968913;28;20023;-76
2022/12/15 08:29:10;;;;;;;24.92;14.50;;;4.30;99.90;;;;;;4960064;28;20572;-77
2022/12/15 08:31:35;;;;;;;26.17;17.42;;;4.30;99.90;;;;;;4959839;28;20033;-76
2022/12/15 08:34:02;;;;;;;27.65;17.98;;;4.40;99.90;;;;;;4958168;28;20027;-76
2022/12/15 08:36:28;;;;;;;30.02;20.73;;;4.40;99.90;;;;;;4957631;28;20269;-76
2022/12/15 08:38:59;;;;;;;40.20;22.90;;;4.40;99.90;;;;;;4961041;28;20027;-77
2022/12/15 08:41:28;;;;;;;42.75;23.83;;;4.50;99.90;;;;;;4963323;28;20109;-77
2022/12/15 08:43:55;;;;;;;37.38;22.95;;;4.50;99.90;;;;;;4958628;28;20031;-76
2022/12/15 08:46:33;;;;;;;43.72;24.63;;;4.50;99.90;;;;;;4964697;28;20027;-76
2022/12/15 08:48:59;;;;;;;42.97;25.98;;;4.50;99.90;;;;;;4969845;28;20078;-76
2022/12/15 08:51:27;;;;;;;44.25;26.33;;;4.50;99.90;;;;;;4969844;28;20035;-77
2022/12/15 08:53:56;;;;;;;38.28;25.55;;;4.60;99.90;;;;;;4966427;28;20168;-76
2022/12/15 08:56:24;;;;;;;38.28;25.77;;;4.60;99.90;;;;;;4960623;28;20023;-76
2022/12/15 08:58:54;;;;;;;41.58;27.08;;;4.70;99.90;;;;;;4962948;28;20031;-77
2022/12/15 09:01:22;;;;;;;43.60;28.02;;;4.70;99.90;;;;;;4976232;28;20022;-76
2022/12/15 09:03:48;;;;;;;41.72;25.63;;;4.70;99.90;;;;;;4963911;28;20029;-76
2022/12/15 09:06:20;;;;;;;42.67;26.85;;;4.70;99.90;;;;;;4970230;28;20446;-76
2022/12/15 09:08:45;;;;;;;46.37;26.53;;;4.80;99.90;;;;;;4970158;28;20101;-77
2022/12/15 09:11:11;;;;;;;44.35;28.48;;;4.70;99.90;;;;;;4969414;28;20030;-76
2022/12/15 09:13:38;;;;;;;48.00;27.60;;;4.70;99.90;;;;;;4968115;28;20037;-76
2022/12/15 09:16:14;;;;;;;43.15;27.02;;;4.70;99.90;;;;;;4968517;28;20037;-76
2022/12/15 09:18:48;;;;;;;43.08;27.83;;;4.80;99.90;;;;;;4968905;28;20023;-76
2022/12/15 09:21:15;;;;;;;44.25;27.40;;;4.80;99.90;;;;;;4963469;28;20027;-76
2022/12/15 09:23:41;;;;;;;43.90;27.13;;;4.80;99.90;;;;;;4961417;28;20046;-76
2022/12/15 09:26:11;;;;;;;43.08;26.75;;;4.80;99.90;;;;;;4959512;28;20034;-76
2022/12/15 09:28:37;;;;;;;42.45;27.08;;;4.80;99.90;;;;;;4964306;28;20485;-76
2022/12/15 09:31:10;;;;;;;44.63;27.50;;;4.70;99.90;;;;;;4964791;28;20114;-75
2022/12/15 09:33:36;;;;;;;48.97;29.02;;;4.60;99.90;;;;;;4960245;28;20413;-77
2022/12/15 09:36:03;;;;;;;45.92;27.27;;;4.70;99.90;;;;;;4962723;28;20393;-76
2022/12/15 09:38:30;;;;;;;44.42;27.10;;;4.70;99.90;;;;;;4959878;28;20055;-76
2022/12/15 09:40:56;;;;;;;45.38;28.48;;;4.70;99.90;;;;;;4964445;28;20027;-76
2022/12/15 09:43:27;;;;;;;44.30;27.90;;;4.70;99.90;;;;;;4964772;28;20053;-76
2022/12/15 09:46:26;;;;;;;42.00;27.95;;;4.70;99.90;;;;;;4959164;28;20033;-76
2022/12/15 09:48:54;;;;;;;45.70;28.38;;;4.80;99.90;;;;;;4960829;28;20058;-76
2022/12/15 09:51:31;;;;;;;44.28;27.58;;;4.90;99.90;;;;;;4957030;28;20465;-76
2022/12/15 09:53:56;;;;;;;48.17;26.08;;;4.90;99.90;;;;;;4965706;28;20034;-76
2022/12/15 09:56:37;;;;;;;42.70;28.15;;;4.90;99.90;;;;;;4962078;28;20508;-75
2022/12/15 09:59:18;;;;;;;47.13;30.05;;;5.00;99.90;;;;;;4964090;28;20366;-76
2022/12/15 10:01:48;;;;;;;45.65;28.02;;;5.00;99.90;;;;;;4960394;28;20047;-76
2022/12/15 10:04:21;;;;;;;50.45;28.33;;;5.00;99.90;;;;;;4961907;28;20034;-76
2022/12/15 10:07:11;;;;;;;42.72;26.98;;;5.00;99.90;;;;;;4968033;28;20043;-76
2022/12/15 10:09:37;;;;;;;40.03;27.10;;;5.00;99.90;;;;;;4984830;28;20091;-76
2022/12/15 10:12:11;;;;;;;43.50;26.30;;;5.00;99.90;;;;;;4971512;28;20162;-76
2022/12/15 10:14:41;;;;;;;43.83;27.02;;;5.00;99.90;;;;;;4970594;28;20023;-78
2022/12/15 10:17:37;;;;;;;42.38;26.45;;;5.00;99.90;;;;;;4969442;28;20477;-77
2022/12/15 10:20:06;;;;;;;43.05;26.40;;;4.90;99.90;;;;;;4969621;28;20038;-77
2022/12/15 10:22:35;;;;;;;41.38;27.38;;;4.90;99.90;;;;;;4971119;28;20019;-77
2022/12/15 10:25:29;;;;;;;37.72;25.77;;;4.90;99.90;;;;;;4968595;28;20066;-76
2022/12/15 10:28:19;;;;;;;40.03;26.15;;;5.00;99.90;;;;;;4962183;28;20083;-76
2022/12/15 10:30:50;;;;;;;41.40;26.05;;;5.00;99.90;;;;;;4959629;28;20035;-76
2022/12/15 10:33:18;;;;;;;39.88;25.50;;;5.10;99.90;;;;;;4961637;28;20019;-77
2022/12/15 10:35:45;;;;;;;40.60;25.05;;;5.20;99.90;;;;;;4962277;28;20053;-77
2022/12/15 10:38:24;;;;;;;37.70;24.50;;;5.20;99.90;;;;;;4970131;28;20026;-77
2022/12/15 10:40:57;;;;;;;36.70;23.27;;;5.20;99.90;;;;;;4971760;28;20023;-76
2022/12/15 10:43:33;;;;;;;35.53;23.92;;;5.10;99.90;;;;;;4972087;28;20026;-76
2022/12/15 10:46:04;;;;;;;30.58;22.38;;;5.20;99.90;;;;;;4966728;28;20030;-77
2022/12/15 10:48:30;;;;;;;31.90;21.55;;;5.10;99.90;;;;;;4969031;28;20496;-76
2022/12/15 10:51:21;;;;;;;35.17;21.88;;;5.20;99.90;;;;;;4965884;28;20688;-77
2022/12/15 10:53:50;;;;;;;36.38;23.83;;;5.20;99.90;;;;;;4963165;28;20032;-76
2022/12/15 10:56:23;;;;;;;36.75;24.45;;;5.30;99.90;;;;;;4966621;28;20058;-76
2022/12/15 10:58:57;;;;;;;40.85;25.33;;;5.30;99.90;;;;;;4967107;28;20037;-76
2022/12/15 11:01:26;;;;;;;36.25;25.42;;;5.30;99.90;;;;;;4967238;28;20403;-76
2022/12/15 11:03:52;;;;;;;36.38;24.90;;;5.30;99.90;;;;;;4965118;28;20027;-77
2022/12/15 11:06:30;;;;;;;38.60;25.15;;;5.40;99.90;;;;;;4964177;28;20462;-76
2022/12/15 11:09:25;;;;;;;33.95;22.35;;;5.40;99.90;;;;;;4968824;28;20177;-77
2022/12/15 11:14:44;;;;;;;32.55;20.98;;;5.50;99.90;;;;;;4961197;28;20086;-77
2022/12/15 11:17:17;;;;;;;30.20;20.15;;;5.40;99.90;;;;;;4965719;28;20035;-77
2022/12/15 11:19:57;;;;;;;35.33;22.40;;;5.40;99.90;;;;;;4958519;28;20029;-76
2022/12/15 11:22:45;;;;;;;37.75;23.83;;;5.40;99.90;;;;;;4963938;28;20590;-76
2022/12/15 11:25:32;;;;;;;37.38;21.73;;;5.40;99.90;;;;;;4963177;28;20567;-75
2022/12/15 11:28:01;;;;;;;40.65;22.75;;;5.40;99.90;;;;;;4959127;28;20027;-76
2022/12/15 11:30:37;;;;;;;35.35;23.70;;;5.40;99.90;;;;;;4965260;28;20439;-76
2022/12/15 11:33:03;;;;;;;37.65;22.27;;;5.50;99.90;;;;;;4959353;28;20027;-76
2022/12/15 11:35:48;;;;;;;32.85;21.42;;;5.50;99.90;;;;;;4961517;28;20092;-76
2022/12/15 11:38:30;;;;;;;33.58;21.17;;;5.60;99.90;;;;;;4963903;28;20506;-76
2022/12/15 11:40:59;;;;;;;33.72;22.40;;;5.60;99.90;;;;;;4959116;28;20019;-76
2022/12/15 11:43:55;;;;;;;34.45;20.92;;;5.70;99.90;;;;;;4961375;28;20376;-76
2022/12/15 11:46:40;;;;;;;31.33;20.00;;;5.70;99.90;;;;;;4963425;28;20486;-76
2022/12/15 11:49:43;;;;;;;36.72;24.00;;;5.80;99.90;;;;;;4961276;28;20477;-75
2022/12/15 11:52:40;;;;;;;31.75;21.10;;;5.80;99.90;;;;;;4963178;28;20026;-76
2022/12/15 11:55:30;;;;;;;29.15;17.30;;;5.90;99.90;;;;;;4961643;28;20035;-76
2022/12/15 11:58:21;;;;;;;27.67;18.55;;;5.90;99.90;;;;;;4962636;28;20393;-76
2022/12/15 12:01:02;;;;;;;27.10;17.48;;;6.00;99.90;;;;;;4969931;28;20039;-75
2022/12/15 12:04:07;;;;;;;25.70;17.83;;;6.00;99.90;;;;;;4962696;28;20024;-76
2022/12/15 12:07:02;;;;;;;31.70;19.55;;;6.00;99.90;;;;;;4950899;28;20042;-76
2022/12/15 12:09:38;;;;;;;22.80;17.30;;;6.00;99.90;;;;;;4961891;28;20126;-76
2022/12/15 12:12:12;;;;;;;33.05;21.38;;;6.10;99.90;;;;;;4962981;28;20034;-76
2022/12/15 12:15:05;;;;;;;34.97;21.85;;;6.00;99.90;;;;;;4971616;28;20042;-76
2022/12/15 12:17:48;;;;;;;37.45;25.00;;;6.00;99.90;;;;;;4957054;28;20039;-75
2022/12/15 12:20:25;;;;;;;37.90;25.35;;;5.90;99.90;;;;;;4962102;28;20034;-75
2022/12/15 12:23:14;;;;;;;36.97;24.48;;;5.80;99.90;;;;;;4964438;28;20030;-75
2022/12/15 12:25:56;;;;;;;39.80;26.85;;;5.70;99.90;;;;;;4962522;28;20028;-75
2022/12/15 12:28:31;;;;;;;47.50;29.45;;;5.70;99.90;;;;;;4963376;28;20025;-75
2022/12/15 12:31:01;;;;;;;48.53;29.83;;;5.60;99.90;;;;;;4962110;28;20182;-76
2022/12/15 12:33:42;;;;;;;43.80;28.20;;;5.60;99.90;;;;;;4960623;28;20058;-76
2022/12/15 12:36:11;;;;;;;39.13;25.17;;;5.60;99.90;;;;;;4962107;28;20042;-76
2022/12/15 12:38:45;;;;;;;40.38;26.65;;;5.60;99.90;;;;;;4962400;28;20429;-76
2022/12/15 12:41:49;;;;;;;39.40;25.48;;;5.50;99.90;;;;;;4964037;28;20027;-76
2022/12/15 12:44:35;;;;;;;41.80;24.83;;;5.50;99.90;;;;;;4958843;28;20024;-76
2022/12/15 12:47:16;;;;;;;39.00;25.13;;;5.60;99.90;;;;;;4967725;28;20531;-76
2022/12/15 12:49:47;;;;;;;36.47;23.58;;;5.60;99.90;;;;;;4961742;28;20073;-76
2022/12/15 12:52:25;;;;;;;38.08;23.70;;;5.60;99.90;;;;;;4968885;28;20042;-76
2022/12/15 12:55:03;;;;;;;36.00;22.98;;;5.60;99.90;;;;;;4963437;28;20027;-76
2022/12/15 12:57:36;;;;;;;34.70;23.23;;;5.70;99.90;;;;;;4965166;28;20063;-75
2022/12/15 13:00:02;;;;;;;33.40;21.88;;;5.70;99.90;;;;;;4961476;28;20070;-75
2022/12/15 13:02:33;;;;;;;39.85;24.67;;;5.70;99.90;;;;;;4961676;28;20056;-76
2022/12/15 13:05:47;;;;;;;34.65;24.33;;;5.80;99.90;;;;;;4961733;28;20019;-76
2022/12/15 13:08:13;;;;;;;42.35;27.48;;;5.70;99.90;;;;;;4947371;28;20043;-76
2022/12/15 13:10:46;;;;;;;41.90;26.13;;;5.70;99.90;;;;;;4965053;28;20090;-76
2022/12/15 13:13:31;;;;;;;38.03;25.63;;;5.70;99.90;;;;;;4960752;28;20035;-76
2022/12/15 13:16:09;;;;;;;37.05;24.50;;;5.80;99.90;;;;;;4967913;28;20444;-76
2022/12/15 13:18:56;;;;;;;42.00;27.27;;;5.80;99.90;;;;;;4961281;28;20024;-76
2022/12/15 13:21:40;;;;;;;43.97;28.48;;;5.70;99.90;;;;;;4965049;28;20027;-76
2022/12/15 13:24:18;;;;;;;39.60;26.75;;;5.70;99.90;;;;;;4961483;28;20030;-76
2022/12/15 13:26:44;;;;;;;40.70;27.13;;;5.70;99.90;;;;;;4961824;28;20028;-76
2022/12/15 13:29:14;;;;;;;40.90;27.83;;;5.70;99.90;;;;;;4963676;28;20509;-76
2022/12/15 13:31:48;;;;;;;47.65;30.20;;;5.60;99.90;;;;;;4961154;28;20023;-76
2022/12/15 13:34:19;;;;;;;45.35;30.33;;;5.60;99.90;;;;;;4961088;28;20031;-76
2022/12/15 13:36:49;;;;;;;43.78;28.65;;;5.60;99.90;;;;;;4964964;28;20388;-76
2022/12/15 13:39:15;;;;;;;40.97;27.33;;;5.60;99.90;;;;;;4962954;28;20050;-76
2022/12/15 13:41:42;;;;;;;40.15;26.60;;;5.70;99.90;;;;;;4964580;28;20054;-76
2022/12/15 13:44:22;;;;;;;37.38;25.48;;;5.60;99.90;;;;;;4960747;28;20122;-76
2022/12/15 13:46:51;;;;;;;42.08;28.33;;;5.60;99.90;;;;;;4965125;28;20042;-76
2022/12/15 13:49:27;;;;;;;43.65;28.92;;;5.70;99.90;;;;;;4967025;28;20034;-75
2022/12/15 13:52:01;;;;;;;48.53;32.65;;;5.70;99.90;;;;;;4961234;28;20043;-77
2022/12/15 13:54:39;;;;;;;49.75;33.30;;;5.60;99.90;;;;;;4963481;28;20034;-75
2022/12/15 13:57:18;;;;;;;48.65;33.13;;;5.60;99.90;;;;;;4959658;28;20082;-76
2022/12/15 13:59:50;;;;;;;50.38;31.73;;;5.50;99.90;;;;;;4964637;28;20026;-76
2022/12/15 14:02:29;;;;;;;48.05;32.92;;;5.50;99.90;;;;;;4963408;28;20024;-76
2022/12/15 14:05:31;;;;;;;51.63;33.70;;;5.60;99.90;;;;;;4959497;28;20481;-76
2022/12/15 14:07:59;;;;;;;48.55;32.88;;;5.60;99.90;;;;;;4960168;28;20086;-77
2022/12/15 14:10:44;;;;;;;49.47;34.67;;;5.60;99.90;;;;;;4959107;28;20023;-76
2022/12/15 14:13:11;;;;;;;48.00;32.33;;;5.60;99.90;;;;;;4960518;28;20094;-76
2022/12/15 14:15:42;;;;;;;47.35;32.40;;;5.60;99.90;;;;;;4965937;28;20495;-77
2022/12/15 14:18:34;;;;;;;45.45;32.30;;;5.60;99.90;;;;;;4956240;28;20055;-77
2022/12/15 14:21:04;;;;;;;51.90;33.47;;;5.60;99.90;;;;;;4959581;28;20019;-76
2022/12/15 14:23:40;;;;;;;52.40;34.20;;;5.60;99.90;;;;;;4962663;28;20023;-76
2022/12/15 14:26:10;;;;;;;51.35;34.45;;;5.60;99.90;;;;;;4959846;28;20519;-77
2022/12/15 14:28:38;;;;;;;49.53;35.97;;;5.60;99.90;;;;;;4963012;28;20057;-76
2022/12/15 14:31:14;;;;;;;49.65;33.65;;;5.70;99.90;;;;;;4964014;28;20031;-77
2022/12/15 14:33:43;;;;;;;50.92;33.83;;;5.60;99.90;;;;;;4956316;28;20540;-77
2022/12/15 14:36:11;;;;;;;45.67;30.55;;;5.60;99.90;;;;;;4956195;28;20437;-77
2022/12/15 14:39:02;;;;;;;50.97;34.65;;;5.50;99.90;;;;;;4972069;28;20050;-76
2022/12/15 14:41:39;;;;;;;55.63;36.30;;;5.40;99.90;;;;;;4960967;28;20413;-76
2022/12/15 14:44:28;;;;;;;53.75;35.15;;;5.40;99.90;;;;;;4975932;28;20033;-76
2022/12/15 14:46:55;;;;;;;57.67;36.65;;;5.40;99.90;;;;;;4959837;28;20121;-76
2022/12/15 14:49:25;;;;;;;49.70;34.13;;;5.30;99.90;;;;;;4973356;28;20027;-76
2022/12/15 14:51:57;;;;;;;57.53;36.45;;;5.40;99.90;;;;;;4968459;28;20031;-76
2022/12/15 14:54:34;;;;;;;52.97;34.33;;;5.30;99.90;;;;;;4964532;28;20026;-76
2022/12/15 14:57:22;;;;;;;51.35;33.83;;;5.30;99.90;;;;;;4962846;28;20043;-76
2022/12/15 14:59:48;;;;;;;48.67;34.00;;;5.30;99.90;;;;;;4953828;28;20421;-76
2022/12/15 15:02:27;;;;;;;55.22;36.13;;;5.30;99.90;;;;;;4970334;28;20069;-76
2022/12/15 15:05:06;;;;;;;53.30;34.58;;;5.40;99.90;;;;;;4959922;28;20027;-76
2022/12/15 15:07:34;;;;;;;56.05;35.08;;;5.40;99.90;;;;;;4959991;28;20066;-76
2022/12/15 15:10:19;;;;;;;56.08;35.15;;;5.40;99.90;;;;;;4972665;28;20038;-76
2022/12/15 15:12:46;;;;;;;51.40;34.38;;;5.50;99.90;;;;;;4962468;28;20082;-76
2022/12/15 15:15:24;;;;;;;54.08;36.00;;;5.50;99.90;;;;;;4965896;28;20026;-76
2022/12/15 15:17:53;;;;;;;50.33;33.55;;;5.50;99.90;;;;;;4969350;28;20377;-76
2022/12/15 15:20:25;;;;;;;46.65;31.35;;;5.50;99.90;;;;;;4964414;28;20023;-76
2022/12/15 15:23:06;;;;;;;59.30;39.00;;;5.50;99.90;;;;;;4965414;28;20082;-76
2022/12/15 15:25:32;;;;;;;47.60;31.40;;;5.50;99.90;;;;;;4963538;28;20031;-76
2022/12/15 15:28:14;;;;;;;47.83;29.33;;;5.50;99.90;;;;;;4965956;28;20094;-76
2022/12/15 15:30:48;;;;;;;41.83;28.08;;;5.50;99.90;;;;;;4969659;28;20039;-76
2022/12/15 15:33:14;;;;;;;16.85;12.65;;;5.50;99.90;;;;;;4964675;28;20030;-75
2022/12/15 15:35:42;;;;;;;20.05;13.15;;;5.60;99.90;;;;;;4963873;28;20035;-75